Latest Coastal Weather Observations for Friendly Beaches

IDT60701

Issued at 5:42 am EST Wednesday 18 September 2019 (issued every 10 minutes, with the page automatically refreshed every 10 minutes)

About coastal observations | Map of coastal stations | Coastal observations for TAS | Marine services | Other Formats
Station Details ID: 092114 Name: FRIENDLY BEACHES Lat: -42.00 Lon: 148.28 Height: 55.0 m
Data from the previous 72 hours. | See also: Recent months at Friendly Beaches
Date/Time
EST
Wind Sea
Height
m
Swell Vis
km
Cloud Weather Temp
°C
Press
hPa
Rain since
9am
mm
Dir  Spd
kts
Gust
kts
Height
m
Period
s
Dir
18/05:30am NW 6 7 - - - - - - - 4.7 1028.0 0.0
18/05:00am WNW 4 5 - - - - - - - 3.9 1028.1 0.0
18/04:30am NW 3 4 - - - - - - - 4.9 1027.9 0.0
18/04:00am WNW 2 3 - - - - - - - 4.4 1027.8 0.0
18/03:30am NW 2 3 - - - - - - - 4.5 1027.8 0.0
18/03:00am W 3 4 - - - - - - - 3.9 1028.0 0.0
18/02:30am NW 4 6 - - - - - - - 3.5 1027.9 0.0
18/02:00am WNW 2 5 - - - - - - - 4.6 1028.1 0.0
18/01:30am W 1 2 - - - - - - - 5.1 1028.1 0.0
18/01:00am CALM 0 0 - - - - - - - 5.8 1028.1 0.0
18/12:30am CALM 0 1 - - - - - - - 6.4 1028.0 0.0
18/12:00am SW 2 3 - - - - - - - 6.5 1027.8 0.0
 
Date/Time
EST
Wind Sea
Height
m
Swell Vis
km
Cloud Weather Temp
°C
Press
hPa
Rain since
9am
mm
Dir  Spd
kts
Gust
kts
Height
m
Period
s
Dir
17/11:30pm N 3 4 - - - - - - - 6.6 1027.6 0.0
17/11:00pm NNW 3 4 - - - - - - - 6.0 1027.5 0.0
17/10:30pm W 3 5 - - - - - - - 7.4 1027.2 0.0
17/10:00pm W 5 7 - - - - - - - 8.3 1027.0 0.0
17/09:30pm WNW 7 10 - - - - - - - 8.8 1026.9 0.0
17/09:00pm WNW 8 14 - - - - - - - 9.5 1026.6 0.0
17/08:30pm W 10 18 - - - - - - - 10.3 1026.5 0.0
17/08:00pm WNW 7 12 - - - - - - - 10.1 1026.5 0.0
17/07:30pm W 7 12 - - - - - - - 10.2 1026.4 0.0
17/07:00pm W 5 9 - - - - - - - 10.3 1025.9 0.0
17/06:30pm W 5 11 - - - - - - - 11.0 1025.5 0.0
17/06:00pm W 6 9 - - - - - - - 11.8 1025.3 0.0
17/05:30pm W 7 15 - - - - - - - 12.8 1024.9 0.0
17/05:00pm W 5 9 - - - - - - - 14.3 1024.6 0.0
17/04:30pm WNW 7 14 - - - - - - - 14.9 1024.4 0.0
17/04:00pm N 5 8 - - - - - - - 14.8 1024.3 0.0
17/03:30pm NNE 7 13 - - - - - - - 15.6 1024.3 0.0
17/03:00pm NNE 10 15 - - - - - - - 15.3 1024.4 0.0
17/02:30pm NNE 11 17 - - - - - - - 15.4 1024.6 0.0
17/02:00pm NNE 10 17 - - - - - - - 15.4 1024.8 0.0
17/01:30pm NE 9 16 - - - - - - - 14.9 1025.2 0.0
17/01:00pm NE 10 17 - - - - - - - 14.9 1025.3 0.0
17/12:30pm NNE 12 19 - - - - - - - 14.1 1025.6 0.0
17/12:00pm NNE 10 17 - - - - - - - 14.6 1026.0 0.0
17/11:30am NNE 11 17 - - - - - - - 14.1 1026.3 0.0
17/11:00am NE 9 15 - - - - - - - 13.8 1026.5 0.0
17/10:30am ENE 8 11 - - - - - - - 12.9 1026.8 0.0
17/10:00am ENE 4 7 - - - - - - - 12.3 1027.2 0.0
17/09:30am WNW 3 5 - - - - - - - 10.9 1027.5 0.0
17/09:00am NW 4 7 - - - - - - - 9.9 1027.5 0.0
17/08:30am W 3 5 - - - - - - - 8.8 1027.3 0.0
17/08:00am WNW 3 4 - - - - - - - 7.1 1027.1 0.0
17/07:30am WNW 4 6 - - - - - - - 5.7 1026.7 0.0
17/07:00am WNW 5 6 - - - - - - - 3.8 1026.3 0.0
17/06:30am W 4 5 - - - - - - - 3.4 1025.9 0.0
17/06:00am WNW 5 7 - - - - - - - 3.1 1025.5 0.0
17/05:30am WNW 5 6 - - - - - - - 3.5 1025.4 0.0
17/05:00am W 6 8 - - - - - - - 3.3 1025.0 0.0
17/04:30am W 6 8 - - - - - - - 3.5 1024.8 0.0
17/04:00am W 5 7 - - - - - - - 3.0 1025.0 0.0
17/03:30am WNW 5 6 - - - - - - - 3.7 1024.9 0.0
17/03:00am WNW 5 7 - - - - - - - 3.9 1025.0 0.0
17/02:30am W 6 8 - - - - - - - 3.7 1024.9 0.0
17/02:00am W 6 7 - - - - - - - 3.5 1025.1 0.0
17/01:30am W 5 6 - - - - - - - 3.9 1025.1 0.0
17/01:00am W 6 8 - - - - - - - 4.0 1025.2 0.0
17/12:30am W 5 8 - - - - - - - 4.0 1025.2 0.0
17/12:00am W 5 7 - - - - - - - 4.0 1025.0 0.0
 
Date/Time
EST
Wind Sea
Height
m
Swell Vis
km
Cloud Weather Temp
°C
Press
hPa
Rain since
9am
mm
Dir  Spd
kts
Gust
kts
Height
m
Period
s
Dir
16/11:30pm W 4 7 - - - - - - - 3.9 1024.7 0.0
16/11:00pm WSW 6 9 - - - - - - - 4.3 1024.7 0.0
16/10:30pm W 5 7 - - - - - - - 4.0 1024.5 0.0
16/10:00pm W 6 8 - - - - - - - 4.4 1024.2 0.0
16/09:30pm W 5 7 - - - - - - - 5.1 1023.9 0.0
16/09:00pm W 4 7 - - - - - - - 4.8 1023.7 0.0
16/08:30pm WSW 4 7 - - - - - - - 5.6 1023.3 0.0
16/08:00pm W 5 7 - - - - - - - 6.0 1022.8 0.0
16/07:30pm W 5 8 - - - - - - - 6.3 1022.4 0.0
16/07:00pm WSW 4 6 - - - - - - - 6.4 1021.6 0.0
16/06:30pm WSW 4 6 - - - - - - - 6.8 1020.9 0.0
16/06:00pm SSW 6 12 - - - - - - - 7.5 1020.3 0.0
16/05:30pm S 5 9 - - - - - - - 8.0 1019.7 0.0
16/05:00pm SSW 9 15 - - - - - - - 9.1 1019.3 0.0
16/04:30pm SW 7 15 - - - - - - - 9.8 1018.8 0.0
16/04:00pm SSW 9 16 - - - - - - - 9.2 1018.2 0.0
16/03:30pm S 8 17 - - - - - - - 10.9 1017.7 0.0
16/03:00pm SSW 6 14 - - - - - - - 9.8 1017.1 0.0
16/02:30pm S 8 15 - - - - - - - 11.7 1016.8 0.0
16/02:00pm S 12 18 - - - - - - - 11.5 1016.5 0.0
16/01:30pm SSW 12 21 - - - - - - - 11.8 1015.9 0.0
16/01:00pm SSW 9 19 - - - - - - - 10.0 1015.7 0.0
16/12:30pm SW 11 24 - - - - - - - 11.9 1015.3 0.0
16/12:06pm SSW 15 25 - - - - - - - 10.9 1015.0 0.0
16/12:00pm SW 13 25 - - - - - - - 10.4 1015.0 0.0
16/11:30am SSW 14 23 - - - - - - - 10.5 1014.6 0.0
16/11:00am SW 12 23 - - - - - - - 11.4 1014.1 0.0
16/10:30am WSW 11 19 - - - - - - - 10.3 1013.6 0.0
16/10:00am WSW 12 20 - - - - - - - 10.7 1013.3 0.0
16/09:30am SW 9 18 - - - - - - - 8.9 1013.1 0.0
16/09:00am SW 9 15 - - - - - - - 10.3 1012.6 0.0
16/08:30am SW 9 16 - - - - - - - 9.2 1011.8 0.0
16/08:00am WSW 11 18 - - - - - - - 8.3 1011.0 0.0
16/07:30am WSW 12 20 - - - - - - - 8.3 1010.2 0.0
16/07:00am WSW 14 23 - - - - - - - 7.9 1009.5 0.0
16/06:30am WSW 16 30 - - - - - - - 8.6 1008.1 0.0
16/06:00am WSW 16 31 - - - - - - - 8.9 1006.9 0.0
16/05:30am W 16 27 - - - - - - - 9.3 1005.6 0.0
16/05:21am W 15 26 - - - - - - - 9.4 1005.2 0.0
16/05:00am W 10 17 - - - - - - - 9.2 1005.0 0.0
16/04:30am W 14 25 - - - - - - - 9.7 1004.1 0.0
16/04:18am W 15 26 - - - - - - - 9.7 1003.8 0.0
16/04:00am WNW 13 22 - - - - - - - 9.3 1003.4 0.0
16/03:48am WNW 15 27 - - - - - - - 9.4 1003.4 0.0
16/03:30am WNW 13 27 - - - - - - - 9.4 1003.3 0.0
16/03:00am WNW 13 26 - - - - - - - 9.5 1003.1 0.0
16/02:50am WNW 15 27 - - - - - - - 9.6 1003.1 0.0
16/02:30am WNW 14 26 - - - - - - - 9.6 1003.2 0.0
16/02:00am WNW 12 25 - - - - - - - 9.6 1003.2 0.0
16/01:30am WNW 8 15 - - - - - - - 9.2 1003.5 0.0
16/01:00am WNW 8 13 - - - - - - - 9.3 1003.9 0.0
16/12:30am WNW 3 7 - - - - - - - 8.3 1004.3 0.0
16/12:00am W 3 4 - - - - - - - 8.6 1004.7 0.0
 
Date/Time
EST
Wind Sea
Height
m
Swell Vis
km
Cloud Weather Temp
°C
Press
hPa
Rain since
9am
mm
Dir  Spd
kts
Gust
kts
Height
m
Period
s
Dir
15/11:30pm W 4 9 - - - - - - - 9.8 1004.8 0.0
15/11:00pm W 6 11 - - - - - - - 10.4 1005.1 0.0
15/10:30pm W 6 11 - - - - - - - 10.4 1005.4 0.0
15/10:00pm W 3 6 - - - - - - - 9.7 1005.4 0.0
15/09:30pm W 3 4 - - - - - - - 10.4 1005.9 0.0
15/09:00pm W 5 11 - - - - - - - 11.4 1006.2 0.0
15/08:30pm WSW 3 6 - - - - - - - 10.3 1006.6 0.0
15/08:00pm CALM 0 0 - - - - - - - 9.9 1006.8 0.0
15/07:30pm NNW 2 3 - - - - - - - 9.9 1006.8 0.0
15/07:00pm NE 2 3 - - - - - - - 10.2 1006.9 0.0
15/06:30pm N 1 3 - - - - - - - 10.7 1006.8 0.0
15/06:00pm ENE 5 6 - - - - - - - 11.2 1006.7 0.0
15/05:30pm ENE 3 6 - - - - - - - 12.3 1006.9 0.0
15/05:00pm E 4 5 - - - - - - - 12.9 1006.9 0.0
15/04:30pm E 5 7 - - - - - - - 13.5 1006.9 0.0
15/04:00pm SE 5 6 - - - - - - - 14.2 1007.1 0.0
15/03:30pm ESE 4 7 - - - - - - - 14.5 1007.3 0.0
15/03:00pm ESE 5 7 - - - - - - - 15.1 1007.4 0.0
15/02:30pm ESE 6 8 - - - - - - - 16.0 1007.5 0.0
15/02:00pm ESE 6 9 - - - - - - - 16.8 1007.8 0.0
15/01:30pm ESE 8 10 - - - - - - - 17.3 1007.7 0.0
15/01:00pm ESE 7 9 - - - - - - - 17.4 1008.1 0.0
15/12:30pm E 5 8 - - - - - - - 17.1 1008.5 0.0
15/12:00pm ENE 5 8 - - - - - - - 17.6 1008.9 0.0
15/11:30am E 5 7 - - - - - - - 18.0 1009.0 0.0
15/11:00am ENE 5 8 - - - - - - - 16.5 1009.2 0.0
15/10:30am ENE 4 7 - - - - - - - 16.7 1009.2 0.0
15/10:00am ENE 5 7 - - - - - - - 18.6 1009.3 0.0
15/09:30am NE 5 7 - - - - - - - 18.1 1009.5 0.0
15/09:00am NE 4 7 - - - - - - - 17.0 1009.6 0.0
15/08:30am E 3 5 - - - - - - - 16.4 1009.3 0.0
15/08:00am SE 2 5 - - - - - - - 15.5 1009.3 0.0
15/07:30am SSE 3 4 - - - - - - - 14.4 1009.1 0.0
15/07:00am NNW 4 6 - - - - - - - 13.6 1009.0 0.0
15/06:30am NNW 4 7 - - - - - - - 13.4 1008.8 0.0
15/06:00am NNW 6 10 - - - - - - - 13.3 1008.4 0.0

Other formats

Comma delimited format used in spreadsheet applications
http://www.bom.gov.au/fwo/IDT60701/IDT60701.94987.axf

JavaScript Object Notation format (JSON) in row-major order
http://www.bom.gov.au/fwo/IDT60701/IDT60701.94987.json

Data quality

Most of these data are generated automatically and are frequently updated. Quality checks on data are not normally performed. It is possible for incorrect values to appear. Refer to information at About Latest Weather Observations and please check the disclaimer before using these data.